Time;durP1;ratioP1;P1;durP2;ratioP2;P2;SDS_P1;SDS_P2;PMS_P1;PMS_P2;Temp;Humidity;BMP_temperature;BMP_pressure;BME280_temperature;BME280_humidity;BME280_pressure;Samples;Min_cycle;Max_cycle;Signal;HPM_P1;HPM_P2
2022/01/12 00:01:20;;;;;;;7.62;3.65;;;2.10;71.10;;;;;;2493259;55;20919;-81
2022/01/12 00:03:46;;;;;;;7.97;3.70;;;2.10;71.00;;;;;;2269328;55;20915;-81
2022/01/12 00:06:15;;;;;;;7.62;3.80;;;2.20;71.20;;;;;;2494290;55;21003;-80
2022/01/12 00:08:42;;;;;;;8.05;3.80;;;2.10;71.00;;;;;;2493340;55;20967;-80
2022/01/12 00:11:08;;;;;;;8.20;3.80;;;2.10;71.10;;;;;;2265472;56;21364;-81
2022/01/12 00:13:34;;;;;;;7.10;3.78;;;2.20;71.20;;;;;;2493145;55;20940;-81
2022/01/12 00:16:02;;;;;;;7.35;3.53;;;2.20;71.20;;;;;;2265255;55;21518;-82
2022/01/12 00:18:29;;;;;;;8.00;3.83;;;2.10;71.40;;;;;;2267326;55;21031;-82
2022/01/12 00:20:55;;;;;;;7.45;3.40;;;2.20;71.50;;;;;;2493472;54;21022;-81
2022/01/12 00:23:22;;;;;;;8.15;3.80;;;2.20;71.50;;;;;;2493708;55;20944;-81
2022/01/12 00:26:04;;;;;;;6.80;3.67;;;2.20;71.50;;;;;;2265640;55;20920;-81
2022/01/12 00:34:04;;;;;;;8.77;3.80;;;2.20;71.30;;;;;;2267973;55;21321;-82
2022/01/12 00:36:31;;;;;;;8.30;4.20;;;2.20;71.10;;;;;;2493197;55;21015;-81
2022/01/12 00:38:57;;;;;;;9.25;3.95;;;2.20;71.00;;;;;;2493823;54;20984;-81
2022/01/12 00:41:27;;;;;;;8.38;4.35;;;2.20;70.90;;;;;;2493530;55;20951;-80
2022/01/12 00:43:58;;;;;;;9.63;4.32;;;2.20;70.90;;;;;;2493721;54;20944;-81
2022/01/12 00:46:29;;;;;;;7.70;4.10;;;2.20;71.00;;;;;;2493808;55;21469;-81
2022/01/12 00:48:57;;;;;;;9.55;4.50;;;2.20;71.00;;;;;;2265008;55;21563;-81
2022/01/12 00:51:26;;;;;;;9.10;4.12;;;2.20;71.20;;;;;;2493439;55;21694;-80
2022/01/12 00:53:55;;;;;;;7.70;3.85;;;2.20;71.30;;;;;;2265874;55;20971;-81
2022/01/12 00:56:22;;;;;;;8.15;3.90;;;2.20;71.50;;;;;;2494020;55;20951;-81
2022/01/12 00:58:48;;;;;;;7.75;3.72;;;2.20;71.50;;;;;;2268801;55;21012;-82
2022/01/12 01:01:14;;;;;;;8.45;4.40;;;2.20;71.50;;;;;;2493609;55;20955;-81
2022/01/12 01:03:40;;;;;;;8.40;4.53;;;2.20;71.40;;;;;;2493522;55;20935;-81
2022/01/12 01:06:09;;;;;;;8.07;4.18;;;2.20;71.30;;;;;;2265669;56;21861;-80
2022/01/12 01:08:35;;;;;;;7.65;4.00;;;2.20;71.20;;;;;;2493414;55;21038;-80
2022/01/12 01:11:01;;;;;;;8.70;4.25;;;2.20;71.10;;;;;;2265846;56;20927;-81
2022/01/12 01:13:34;;;;;;;9.20;4.40;;;2.20;71.00;;;;;;2493506;55;20968;-81
2022/01/12 01:16:24;;;;;;;8.88;4.25;;;2.20;70.90;;;;;;2494081;55;21338;-80
2022/01/12 01:25:32;;;;;;;11.55;4.78;;;2.20;70.80;;;;;;2494399;55;20968;-82
2022/01/12 01:28:00;;;;;;;9.57;4.57;;;2.20;70.80;;;;;;2265753;55;20936;-81
2022/01/12 01:30:26;;;;;;;10.45;4.62;;;2.30;70.70;;;;;;2265135;55;21753;-80
2022/01/12 01:32:54;;;;;;;8.20;4.37;;;2.10;70.40;;;;;;2494414;55;20932;-80
2022/01/12 01:35:20;;;;;;;9.30;4.32;;;2.10;70.30;;;;;;2262638;55;20915;-81
2022/01/12 01:37:46;;;;;;;9.27;5.20;;;2.10;70.20;;;;;;2264414;55;20927;-80
2022/01/12 01:40:13;;;;;;;9.32;4.87;;;2.10;70.20;;;;;;2494182;55;21397;-80
2022/01/12 01:55:11;;;;;;;7.45;3.42;;;2.00;70.60;;;;;;2493344;54;20972;-81
2022/01/12 01:57:47;;;;;;;6.85;3.62;;;2.00;70.60;;;;;;2494721;55;20911;-81
2022/01/12 02:00:16;;;;;;;6.45;3.35;;;2.00;70.60;;;;;;2467182;55;20963;-82
2022/01/12 02:03:03;;;;;;;6.53;3.15;;;2.00;70.70;;;;;;2496007;54;21060;-81
2022/01/12 02:06:20;;;;;;;8.35;3.70;;;2.00;70.70;;;;;;2491723;55;20975;-80
2022/01/12 02:09:25;;;;;;;6.87;3.20;;;2.00;70.40;;;;;;2272059;55;21019;-81
2022/01/12 02:11:52;;;;;;;8.10;4.22;;;2.00;70.40;;;;;;2267682;55;22020;-81
2022/01/12 02:14:22;;;;;;;8.05;4.28;;;2.00;70.50;;;;;;2269216;55;20972;-81
2022/01/12 02:17:02;;;;;;;7.53;4.32;;;2.00;70.90;;;;;;2494582;54;21044;-81
2022/01/12 02:19:53;;;;;;;9.60;3.75;;;2.00;71.00;;;;;;2267178;55;21245;-81
2022/01/12 02:56:17;;;;;;;5.93;2.80;;;1.90;70.10;;;;;;2496251;54;20947;-81
2022/01/12 03:00:08;;;;;;;5.10;2.67;;;1.90;70.10;;;;;;2278602;55;21036;-81
2022/01/12 03:03:05;;;;;;;6.25;2.90;;;1.90;69.70;;;;;;2494830;54;21585;-82
2022/01/12 03:05:47;;;;;;;6.20;2.92;;;1.80;69.80;;;;;;2493094;55;21042;-80
2022/01/12 03:09:14;;;;;;;6.45;3.12;;;1.80;70.00;;;;;;2495639;54;21842;-82
2022/01/12 03:12:21;;;;;;;6.20;2.95;;;1.80;70.00;;;;;;2473339;54;21342;-81
2022/01/12 03:15:01;;;;;;;9.43;3.80;;;1.80;70.10;;;;;;2258272;56;21236;-81
2022/01/12 03:18:28;;;;;;;6.30;3.20;;;1.70;70.10;;;;;;2497375;54;21056;-82
2022/01/12 03:21:21;;;;;;;7.28;3.33;;;1.80;70.30;;;;;;2267855;55;21055;-80
2022/01/12 03:27:14;;;;;;;5.53;2.70;;;1.70;70.20;;;;;;2491375;54;20995;-80
2022/01/12 03:31:07;;;;;;;8.73;3.20;;;1.70;70.20;;;;;;2496135;54;20972;-81
2022/01/12 03:53:13;;;;;;;8.80;3.12;;;1.50;69.60;;;;;;2262037;56;21035;-81
2022/01/12 03:56:28;;;;;;;7.90;3.22;;;1.40;69.20;;;;;;2495898;54;20975;-82
2022/01/12 03:59:43;;;;;;;7.97;3.30;;;1.40;69.30;;;;;;2441614;54;21251;-82
2022/01/12 04:03:05;;;;;;;7.82;3.75;;;1.40;69.50;;;;;;2248346;56;21041;-82
2022/01/12 04:14:07;;;;;;;;;;;;;;;;;;;;;
2022/01/12 04:16:55;;;;;;;9.80;4.15;;;1.20;69.30;;;;;;2262293;55;20976;-81
2022/01/12 04:19:30;;;;;;;8.35;3.97;;;1.20;69.10;;;;;;2474775;54;20939;-82
2022/01/12 04:25:56;;;;;;;15.88;5.75;;;1.10;69.10;;;;;;2472646;54;20952;-82
2022/01/12 04:28:41;;;;;;;11.73;5.50;;;1.00;69.10;;;;;;2495927;55;20923;-81
2022/01/12 04:31:38;;;;;;;10.27;4.93;;;1.00;69.20;;;;;;2490471;54;21365;-83
2022/01/12 04:35:02;;;;;;;12.40;5.15;;;1.00;69.20;;;;;;2474564;54;21394;-81
2022/01/12 04:38:22;;;;;;;8.95;4.32;;;1.00;69.00;;;;;;2488083;54;21510;-81
2022/01/12 04:41:13;;;;;;;9.73;4.37;;;0.90;69.00;;;;;;2493251;54;20949;-81
2022/01/12 04:43:52;;;;;;;10.80;5.10;;;0.90;68.90;;;;;;2247226;55;21379;-82
2022/01/12 04:46:51;;;;;;;12.45;5.60;;;0.90;68.90;;;;;;2274918;55;21854;-81
2022/01/12 04:50:00;;;;;;;;;;;;;;;;;;;;;
2022/01/12 04:52:45;;;;;;;11.10;5.20;;;0.80;69.10;;;;;;2485397;54;21350;-82
2022/01/12 05:20:47;;;;;;;;;;;;;;;;;;;;;
2022/01/12 05:23:33;;;;;;;11.25;4.85;;;0.70;69.10;;;;;;2342150;52;22616;-69
2022/01/12 05:25:59;;;;;;;11.15;5.32;;;0.60;69.40;;;;;;2441712;53;20976;-68
2022/01/12 05:28:27;;;;;;;12.05;5.65;;;0.60;69.50;;;;;;2330829;54;20944;-68
2022/01/12 05:30:54;;;;;;;13.77;6.20;;;0.50;69.50;;;;;;2330474;54;20973;-68
2022/01/12 05:33:22;;;;;;;13.32;6.62;;;0.50;69.50;;;;;;2330312;54;21784;-68
2022/01/12 05:35:48;;;;;;;15.65;7.07;;;0.50;69.60;;;;;;2329617;53;20960;-68
2022/01/12 05:38:15;;;;;;;14.98;6.80;;;0.50;69.70;;;;;;2330029;54;21787;-68
2022/01/12 05:40:46;;;;;;;17.80;7.53;;;0.50;69.80;;;;;;2333136;54;21099;-70
2022/01/12 05:43:13;;;;;;;14.65;6.50;;;0.50;69.80;;;;;;2334445;54;21749;-68
2022/01/12 05:45:43;;;;;;;13.98;6.90;;;0.50;69.60;;;;;;2340489;53;22242;-69
2022/01/12 05:50:58;;;;;;;11.70;5.82;;;0.40;69.40;;;;;;2330777;54;20936;-67
2022/01/12 05:53:24;;;;;;;11.32;5.30;;;0.40;69.30;;;;;;2330595;54;20935;-68
2022/01/12 05:55:51;;;;;;;14.00;6.60;;;0.40;69.20;;;;;;2330537;54;20984;-69
2022/01/12 05:58:20;;;;;;;15.30;6.87;;;0.40;69.20;;;;;;2345676;53;20946;-68
2022/01/12 06:00:46;;;;;;;13.32;6.45;;;0.30;69.10;;;;;;2334527;53;21012;-68
2022/01/12 06:03:12;;;;;;;13.52;6.20;;;0.30;69.00;;;;;;2333945;53;21405;-69
2022/01/12 06:05:39;;;;;;;12.85;6.80;;;0.30;69.10;;;;;;2330264;54;20963;-70
2022/01/12 06:08:05;;;;;;;14.05;6.03;;;0.30;69.10;;;;;;2432506;53;21048;-67
2022/01/12 06:10:31;;;;;;;12.35;6.20;;;0.30;69.10;;;;;;2335763;53;21257;-67
2022/01/12 06:12:58;;;;;;;12.50;6.40;;;0.20;69.00;;;;;;2308269;54;21056;-68
2022/01/12 06:15:24;;;;;;;12.98;6.47;;;0.20;69.00;;;;;;2330427;53;21321;-69
2022/01/12 06:17:50;;;;;;;13.52;6.72;;;0.20;69.10;;;;;;2397592;53;20913;-68
2022/01/12 06:20:16;;;;;;;14.10;7.47;;;0.20;69.20;;;;;;2330174;53;21374;-67
2022/01/12 06:22:43;;;;;;;15.70;7.93;;;0.20;69.20;;;;;;2328594;53;20952;-69
2022/01/12 06:25:14;;;;;;;12.88;6.80;;;0.20;69.20;;;;;;2329833;53;21398;-68
2022/01/12 06:27:49;;;;;;;12.50;6.68;;;0.10;69.00;;;;;;2330120;53;20937;-68
2022/01/12 06:33:46;;;;;;;17.35;7.87;;;0.10;69.10;;;;;;2329985;54;20925;-68
2022/01/12 06:36:16;;;;;;;14.98;8.00;;;0.10;69.20;;;;;;2453326;53;20927;-70
2022/01/12 06:38:49;;;;;;;21.35;9.00;;;0.10;69.30;;;;;;2357842;53;20996;-68
2022/01/12 06:41:15;;;;;;;50.80;16.55;;;0.10;69.40;;;;;;2296965;55;20921;-69
2022/01/12 06:43:42;;;;;;;25.33;12.00;;;0.10;69.50;;;;;;2296572;55;21039;-70
2022/01/12 06:46:09;;;;;;;24.20;10.38;;;0.10;69.80;;;;;;2304545;55;21091;-67
2022/01/12 06:48:35;;;;;;;31.23;12.35;;;0.10;69.80;;;;;;2310043;53;21436;-68
2022/01/12 06:51:02;;;;;;;28.42;12.73;;;0.10;69.80;;;;;;2322214;54;21032;-69
2022/01/12 06:53:28;;;;;;;28.75;12.43;;;0.10;69.80;;;;;;2384582;53;21001;-67
2022/01/12 06:55:54;;;;;;;24.50;10.13;;;0.10;69.60;;;;;;2371955;54;21504;-67
2022/01/12 06:58:26;;;;;;;19.35;9.73;;;0.00;69.50;;;;;;2459005;52;20973;-70
2022/01/12 07:00:52;;;;;;;22.02;9.98;;;0.00;69.50;;;;;;2368886;53;20952;-68
2022/01/12 07:03:19;;;;;;;24.52;10.27;;;0.00;69.40;;;;;;2354389;53;20922;-67
2022/01/12 07:05:47;;;;;;;24.58;10.48;;;0.00;69.50;;;;;;2371967;54;20925;-68
2022/01/12 07:08:14;;;;;;;19.55;9.95;;;0.00;69.60;;;;;;2625054;52;20925;-67
2022/01/12 07:10:40;;;;;;;17.33;8.90;;;0.00;69.70;;;;;;2371835;54;20957;-69
2022/01/12 07:13:10;;;;;;;17.45;8.85;;;0.00;69.70;;;;;;2493034;52;21033;-67
2022/01/12 07:15:38;;;;;;;16.27;8.50;;;0.00;69.80;;;;;;2343826;53;20968;-69
2022/01/12 07:18:04;;;;;;;15.20;8.30;;;0.00;69.70;;;;;;2433571;52;20950;-67
2022/01/12 07:20:31;;;;;;;16.92;9.23;;;0.00;70.30;;;;;;2360939;53;21529;-68
2022/01/12 07:22:57;;;;;;;21.73;10.43;;;0.00;69.60;;;;;;2447510;52;20988;-69
2022/01/12 07:25:23;;;;;;;19.48;10.20;;;0.00;69.70;;;;;;2374785;54;21001;-67
2022/01/12 07:27:49;;;;;;;18.83;9.65;;;0.00;69.70;;;;;;2349573;53;20930;-67
2022/01/12 07:30:16;;;;;;;19.60;9.63;;;0.00;69.70;;;;;;2372192;54;20934;-68
2022/01/12 07:32:42;;;;;;;18.70;9.45;;;0.00;69.70;;;;;;2370968;54;20986;-69
2022/01/12 07:35:09;;;;;;;16.83;8.40;;;0.00;69.60;;;;;;2372303;53;20953;-68
2022/01/12 07:37:35;;;;;;;17.52;8.10;;;0.00;69.60;;;;;;2385373;52;20990;-70
2022/01/12 07:40:01;;;;;;;16.25;7.53;;;0.00;69.60;;;;;;2372428;54;20978;-68
2022/01/12 07:42:28;;;;;;;13.95;6.72;;;0.00;69.50;;;;;;2398298;52;21049;-70
2022/01/12 07:45:00;;;;;;;12.20;6.22;;;0.00;69.60;;;;;;2362694;53;20933;-67
2022/01/12 07:47:27;;;;;;;14.02;6.22;;;0.00;69.70;;;;;;2362403;53;20918;-69
2022/01/12 07:49:53;;;;;;;12.95;6.70;;;0.00;69.90;;;;;;2371049;53;21038;-66
2022/01/12 07:52:19;;;;;;;11.90;6.57;;;0.00;70.00;;;;;;2372734;54;20926;-67
2022/01/12 07:54:46;;;;;;;17.25;7.80;;;0.00;70.00;;;;;;2516667;52;20962;-68
2022/01/12 07:57:15;;;;;;;15.02;7.57;;;0.00;70.10;;;;;;2358379;53;21041;-68
2022/01/12 07:59:41;;;;;;;13.48;6.85;;;0.00;70.10;;;;;;2358393;53;21069;-70
2022/01/12 08:02:08;;;;;;;14.93;7.32;;;0.00;70.10;;;;;;2371752;53;20993;-68
2022/01/12 08:04:37;;;;;;;13.65;7.20;;;0.00;70.30;;;;;;2598922;52;21053;-67
2022/01/12 08:07:04;;;;;;;14.80;8.05;;;0.00;70.50;;;;;;2372217;53;21371;-69
2022/01/12 08:09:30;;;;;;;14.25;8.50;;;0.00;70.70;;;;;;2350974;53;20959;-68
2022/01/12 08:11:56;;;;;;;13.62;7.22;;;0.00;70.90;;;;;;2371971;53;21013;-67
2022/01/12 08:14:23;;;;;;;15.57;7.90;;;0.10;71.20;;;;;;2624577;52;20922;-67
2022/01/12 08:16:49;;;;;;;16.15;7.90;;;0.10;71.30;;;;;;2371948;54;21292;-67
2022/01/12 08:19:18;;;;;;;14.93;7.62;;;0.20;71.50;;;;;;2371920;53;20990;-67
2022/01/12 08:21:44;;;;;;;15.93;8.00;;;0.20;71.60;;;;;;2371897;53;20993;-69
2022/01/12 08:24:12;;;;;;;17.85;9.63;;;0.20;71.60;;;;;;2373078;54;20918;-68
2022/01/12 08:26:49;;;;;;;15.10;8.10;;;0.30;71.70;;;;;;2372049;53;20941;-70
2022/01/12 08:29:16;;;;;;;17.17;8.40;;;0.30;71.70;;;;;;2356553;52;21869;-70
2022/01/12 08:31:43;;;;;;;13.57;7.45;;;0.30;71.90;;;;;;2352115;53;21876;-68
2022/01/12 08:34:10;;;;;;;16.17;8.15;;;0.40;72.00;;;;;;2369719;53;20945;-68
2022/01/12 08:36:38;;;;;;;16.08;9.05;;;0.50;72.10;;;;;;2548920;52;20982;-69
2022/01/12 08:39:06;;;;;;;15.35;8.27;;;0.50;72.10;;;;;;2371075;53;20925;-66
2022/01/12 08:41:33;;;;;;;17.25;8.73;;;0.50;72.10;;;;;;2404396;52;21755;-67
2022/01/12 08:44:04;;;;;;;17.83;9.02;;;0.60;72.40;;;;;;2372094;53;21501;-68
2022/01/12 08:46:31;;;;;;;16.20;8.23;;;0.70;72.60;;;;;;2371811;53;20994;-68
2022/01/12 08:48:57;;;;;;;20.05;10.15;;;0.70;72.60;;;;;;2365998;53;21005;-66
2022/01/12 08:51:23;;;;;;;16.55;8.77;;;0.80;72.70;;;;;;2359278;53;20980;-67
2022/01/12 08:53:49;;;;;;;19.12;11.18;;;0.80;72.80;;;;;;2361712;53;20981;-71
2022/01/12 08:56:16;;;;;;;20.15;10.52;;;0.90;73.00;;;;;;2351743;53;21019;-69
2022/01/12 08:58:42;;;;;;;22.95;11.45;;;0.90;73.10;;;;;;2360631;53;20938;-68
2022/01/12 09:01:10;;;;;;;19.85;10.73;;;1.00;73.30;;;;;;2364500;54;21625;-68
2022/01/12 09:03:39;;;;;;;22.27;10.82;;;1.10;73.40;;;;;;2364840;53;20945;-69
2022/01/12 09:06:06;;;;;;;26.60;12.13;;;1.20;73.60;;;;;;2370523;53;20954;-68
2022/01/12 09:08:34;;;;;;;23.38;10.88;;;1.20;73.60;;;;;;2362627;53;20993;-68
2022/01/12 09:11:00;;;;;;;23.77;12.88;;;1.30;73.60;;;;;;2358270;53;21190;-68
2022/01/12 09:13:27;;;;;;;22.58;12.10;;;1.40;73.80;;;;;;2347599;53;21570;-70
2022/01/12 09:15:53;;;;;;;24.80;12.52;;;1.40;73.80;;;;;;2603192;52;20930;-68
2022/01/12 09:18:19;;;;;;;26.65;14.25;;;1.50;73.90;;;;;;2372216;54;21581;-69
2022/01/12 09:20:46;;;;;;;26.60;13.18;;;1.50;73.80;;;;;;2371766;53;20950;-66
2022/01/12 09:23:16;;;;;;;23.77;12.40;;;1.60;73.90;;;;;;2370111;53;21703;-71
2022/01/12 09:25:45;;;;;;;24.00;13.18;;;1.70;73.90;;;;;;2373439;52;21040;-69
2022/01/12 09:28:11;;;;;;;23.67;13.18;;;1.70;73.80;;;;;;2366421;53;21004;-67
2022/01/12 09:30:38;;;;;;;25.27;13.65;;;1.70;73.80;;;;;;2352313;53;20941;-70
2022/01/12 09:33:04;;;;;;;25.10;13.65;;;1.80;73.80;;;;;;2370883;53;21474;-68
2022/01/12 09:35:31;;;;;;;25.12;13.40;;;1.90;73.80;;;;;;2371477;54;20974;-70
2022/01/12 09:37:57;;;;;;;24.65;13.02;;;1.90;73.80;;;;;;2372201;53;21009;-69
2022/01/12 09:40:23;;;;;;;26.48;13.13;;;2.00;73.80;;;;;;2411397;52;20934;-70
2022/01/12 09:42:51;;;;;;;23.95;12.30;;;2.00;73.80;;;;;;2373742;52;21712;-70
2022/01/12 09:45:18;;;;;;;20.95;11.93;;;2.10;73.80;;;;;;2372195;54;20997;-69
2022/01/12 09:47:47;;;;;;;24.30;12.27;;;2.10;73.70;;;;;;2460250;52;20934;-67
2022/01/12 09:50:14;;;;;;;22.40;11.82;;;2.20;73.80;;;;;;2372042;53;21418;-69
2022/01/12 09:52:40;;;;;;;21.52;11.35;;;2.30;73.90;;;;;;2371802;53;20985;-68
2022/01/12 09:55:07;;;;;;;22.80;11.10;;;2.30;73.90;;;;;;2371617;54;20950;-68
2022/01/12 09:57:36;;;;;;;20.90;10.90;;;2.30;74.00;;;;;;2370673;54;20929;-67
2022/01/12 10:00:04;;;;;;;18.58;10.02;;;2.40;74.20;;;;;;2371963;54;20937;-67
2022/01/12 10:02:30;;;;;;;21.02;11.38;;;2.40;74.20;;;;;;2371613;54;21017;-70
2022/01/12 10:05:00;;;;;;;20.23;10.75;;;2.50;74.20;;;;;;2362506;53;21032;-67
2022/01/12 10:07:27;;;;;;;20.35;10.48;;;2.60;74.30;;;;;;2374621;52;21743;-68
2022/01/12 10:09:55;;;;;;;21.90;11.50;;;2.70;74.80;;;;;;2371766;53;20974;-70
2022/01/12 10:12:22;;;;;;;18.90;10.73;;;2.80;76.20;;;;;;2351672;54;21077;-69
2022/01/12 10:14:50;;;;;;;20.42;10.85;;;2.90;77.60;;;;;;2356632;53;20917;-68
2022/01/12 10:17:29;;;;;;;18.02;10.07;;;3.20;78.90;;;;;;2365082;53;21009;-68
2022/01/12 10:20:08;;;;;;;15.13;8.82;;;3.50;79.70;;;;;;2374103;53;20906;-69
2022/01/12 10:22:34;;;;;;;15.63;9.57;;;3.80;79.80;;;;;;2371852;53;21013;-67
2022/01/12 10:25:01;;;;;;;14.35;8.90;;;4.10;79.60;;;;;;2371886;54;20953;-70
2022/01/12 10:27:27;;;;;;;12.68;7.62;;;4.30;79.00;;;;;;2371568;53;21435;-68
2022/01/12 10:29:58;;;;;;;12.77;7.75;;;4.40;78.00;;;;;;2370542;53;20934;-70
2022/01/12 10:32:25;;;;;;;14.20;8.32;;;4.60;77.00;;;;;;2350026;54;21009;-68
2022/01/12 10:34:51;;;;;;;16.17;8.75;;;4.70;76.10;;;;;;2347627;53;20990;-69
2022/01/12 10:37:19;;;;;;;13.13;8.35;;;4.70;75.40;;;;;;2370937;53;20926;-69
2022/01/12 10:39:46;;;;;;;12.77;8.00;;;4.80;74.80;;;;;;2371389;53;21001;-69
2022/01/12 10:42:14;;;;;;;12.25;7.50;;;4.70;74.40;;;;;;2372031;53;20926;-69
2022/01/12 10:44:42;;;;;;;10.88;6.85;;;4.80;74.30;;;;;;2373482;54;21383;-68
2022/01/12 10:47:12;;;;;;;13.50;7.93;;;4.80;74.20;;;;;;2351322;53;20947;-68
2022/01/12 10:49:41;;;;;;;13.80;7.72;;;4.80;74.10;;;;;;2371401;53;20957;-69
2022/01/12 10:52:13;;;;;;;14.93;8.45;;;4.80;74.10;;;;;;2371888;54;20934;-69
2022/01/12 10:54:45;;;;;;;15.70;9.47;;;4.80;75.00;;;;;;2372081;54;20966;-69
2022/01/12 10:57:31;;;;;;;15.38;9.20;;;4.90;77.00;;;;;;2371958;54;20981;-67
2022/01/12 11:00:30;;;;;;;14.43;8.70;;;5.10;79.00;;;;;;2357966;53;20945;-70
2022/01/12 11:02:57;;;;;;;14.30;9.18;;;5.60;80.80;;;;;;2551100;52;20970;-67
2022/01/12 11:05:25;;;;;;;14.00;9.15;;;5.90;82.80;;;;;;2390258;53;20971;-69
2022/01/12 11:07:52;;;;;;;14.85;9.75;;;6.40;84.10;;;;;;2344520;53;21704;-67
2022/01/12 11:10:19;;;;;;;14.63;10.40;;;6.80;84.80;;;;;;2343043;53;20994;-69
2022/01/12 11:12:47;;;;;;;14.27;9.82;;;7.20;85.10;;;;;;2346525;53;21502;-68
2022/01/12 11:15:15;;;;;;;15.23;10.07;;;7.70;85.40;;;;;;2354473;53;20933;-71
2022/01/12 11:17:44;;;;;;;15.95;10.40;;;8.10;85.40;;;;;;2371491;53;21825;-70
2022/01/12 11:20:19;;;;;;;14.93;9.70;;;8.40;84.80;;;;;;2366774;54;21088;-67
2022/01/12 11:23:08;;;;;;;17.33;10.30;;;8.80;83.20;;;;;;2334861;53;21423;-70
2022/01/12 11:25:45;;;;;;;13.52;8.70;;;9.00;80.90;;;;;;2343222;53;20986;-68
2022/01/12 11:28:24;;;;;;;12.98;7.90;;;9.20;80.80;;;;;;2343604;53;20923;-68
2022/01/12 11:31:00;;;;;;;10.88;7.55;;;9.30;78.30;;;;;;2364488;54;20945;-71
2022/01/12 11:33:45;;;;;;;10.70;7.65;;;9.40;76.70;;;;;;2348931;54;21022;-68
2022/01/12 11:36:26;;;;;;;11.05;7.45;;;9.30;74.70;;;;;;2344942;54;20939;-67
2022/01/12 11:39:14;;;;;;;12.07;7.87;;;9.30;74.90;;;;;;2371117;54;20937;-70
2022/01/12 11:41:56;;;;;;;10.23;6.62;;;9.20;72.90;;;;;;2621217;52;20941;-68
2022/01/12 11:44:24;;;;;;;11.77;7.50;;;9.10;72.10;;;;;;2340936;53;20960;-68
2022/01/12 11:46:55;;;;;;;9.95;6.90;;;9.00;72.30;;;;;;2452708;52;20905;-68
2022/01/12 11:49:58;;;;;;;10.43;7.05;;;8.90;72.00;;;;;;2344182;53;20922;-67
2022/01/12 11:52:35;;;;;;;10.32;6.57;;;8.80;71.00;;;;;;2341151;53;20990;-67
2022/01/12 11:55:11;;;;;;;11.15;6.85;;;8.60;70.50;;;;;;2370456;53;20933;-69
2022/01/12 11:57:38;;;;;;;11.48;7.18;;;8.50;70.30;;;;;;2371598;53;20978;-66
2022/01/12 12:00:13;;;;;;;10.32;7.00;;;8.30;71.20;;;;;;2372072;53;20950;-68
2022/01/12 12:02:53;;;;;;;10.88;7.07;;;8.30;71.40;;;;;;2351500;54;20934;-68
2022/01/12 12:05:28;;;;;;;11.57;7.25;;;8.20;71.80;;;;;;2371679;53;20929;-68
2022/01/12 12:08:03;;;;;;;9.95;6.62;;;8.20;71.90;;;;;;2371470;53;21022;-69
2022/01/12 12:10:32;;;;;;;11.75;7.68;;;8.20;72.00;;;;;;2452794;52;21021;-69
2022/01/12 12:12:59;;;;;;;11.10;7.43;;;8.20;72.10;;;;;;2352126;53;20986;-70
2022/01/12 12:15:26;;;;;;;10.60;7.20;;;8.10;71.30;;;;;;2599711;52;21484;-67
2022/01/12 12:17:53;;;;;;;11.23;6.53;;;8.10;71.10;;;;;;2370864;53;21268;-66
2022/01/12 12:20:21;;;;;;;11.20;7.05;;;8.10;71.60;;;;;;2458346;52;20933;-67
2022/01/12 12:22:48;;;;;;;10.20;7.07;;;8.10;72.00;;;;;;2371349;53;21943;-69
2022/01/12 12:25:25;;;;;;;13.45;7.72;;;8.10;72.70;;;;;;2413921;52;20946;-66
2022/01/12 12:28:01;;;;;;;12.40;7.37;;;8.10;72.10;;;;;;2456429;52;21006;-70
2022/01/12 12:30:28;;;;;;;11.05;6.72;;;8.20;72.00;;;;;;2354527;53;21004;-67
2022/01/12 12:32:57;;;;;;;11.25;7.70;;;8.20;72.40;;;;;;2467721;52;21485;-70
2022/01/12 12:35:29;;;;;;;10.02;6.90;;;8.20;72.30;;;;;;2371621;54;21032;-67
2022/01/12 12:38:16;;;;;;;11.38;7.25;;;8.30;72.30;;;;;;2372503;54;21871;-68
2022/01/12 12:40:55;;;;;;;12.15;7.55;;;8.30;71.60;;;;;;2371864;53;21040;-69
2022/01/12 12:43:24;;;;;;;10.77;7.25;;;8.40;73.20;;;;;;2371493;54;20922;-67
2022/01/12 12:45:59;;;;;;;11.10;7.22;;;8.50;73.30;;;;;;2401836;52;20997;-69
2022/01/12 12:48:32;;;;;;;12.65;7.97;;;8.60;73.00;;;;;;2371363;53;20998;-69
2022/01/12 12:51:00;;;;;;;10.75;7.45;;;8.60;72.80;;;;;;2371700;54;21412;-67
2022/01/12 12:53:32;;;;;;;10.50;7.75;;;8.70;72.50;;;;;;2371984;54;20946;-66
2022/01/12 12:55:58;;;;;;;10.70;8.07;;;8.80;72.00;;;;;;2371546;53;21022;-69
2022/01/12 12:58:28;;;;;;;10.85;7.37;;;8.80;71.90;;;;;;2371476;53;20925;-70
2022/01/12 13:01:11;;;;;;;10.45;6.95;;;8.90;71.70;;;;;;2371869;54;20989;-67
2022/01/12 13:03:39;;;;;;;9.68;7.00;;;9.00;70.80;;;;;;2371200;54;20974;-68
2022/01/12 13:06:05;;;;;;;11.60;7.40;;;9.00;71.30;;;;;;2430993;53;20980;-66
2022/01/12 13:08:35;;;;;;;10.20;7.07;;;9.00;71.20;;;;;;2383237;52;21315;-68
2022/01/12 13:11:08;;;;;;;11.02;7.05;;;9.00;70.80;;;;;;2371083;53;20957;-70
2022/01/12 13:13:34;;;;;;;10.23;6.40;;;9.10;70.60;;;;;;2334873;54;20958;-70
2022/01/12 13:16:00;;;;;;;8.90;6.37;;;9.10;70.90;;;;;;2371687;54;21407;-70
2022/01/12 13:18:26;;;;;;;9.50;6.32;;;9.20;70.70;;;;;;2371709;54;20984;-69
2022/01/12 13:21:07;;;;;;;10.57;6.85;;;9.20;70.30;;;;;;2365830;53;20969;-70
2022/01/12 13:23:45;;;;;;;10.38;6.47;;;9.20;70.30;;;;;;2357849;53;20949;-67
2022/01/12 13:26:15;;;;;;;9.90;6.82;;;9.30;69.90;;;;;;2358175;53;21001;-69
2022/01/12 13:28:46;;;;;;;10.07;6.80;;;9.30;70.20;;;;;;2368316;53;20954;-67
2022/01/12 13:31:14;;;;;;;11.55;7.45;;;9.30;69.80;;;;;;2371885;54;21049;-69
2022/01/12 13:33:45;;;;;;;12.98;8.00;;;9.40;70.10;;;;;;2527441;52;20946;-70
2022/01/12 13:36:33;;;;;;;11.73;7.43;;;9.40;69.70;;;;;;2371807;53;20938;-69
2022/01/12 13:39:09;;;;;;;10.95;7.43;;;9.40;68.10;;;;;;2494745;52;20986;-67
2022/01/12 13:41:48;;;;;;;10.15;6.97;;;9.40;68.80;;;;;;2401565;52;20946;-68
2022/01/12 13:44:16;;;;;;;13.30;8.25;;;9.40;68.80;;;;;;2321530;54;20972;-70
2022/01/12 13:49:35;;;;;;;11.80;7.93;;;9.30;68.20;;;;;;2366141;54;20966;-66
2022/01/12 13:52:07;;;;;;;13.00;9.07;;;9.20;68.50;;;;;;2361846;53;20955;-70
2022/01/12 13:54:43;;;;;;;13.13;9.23;;;9.20;68.10;;;;;;2357514;53;20941;-69
2022/01/12 13:57:11;;;;;;;11.75;8.32;;;9.00;68.10;;;;;;2358155;54;20991;-69
2022/01/12 13:59:47;;;;;;;12.50;8.68;;;8.90;68.00;;;;;;2360948;54;20910;-68
2022/01/12 14:02:15;;;;;;;12.80;8.05;;;8.80;67.80;;;;;;2343055;54;20966;-68
2022/01/12 14:04:58;;;;;;;11.45;7.40;;;8.80;68.50;;;;;;2545076;52;21028;-67
2022/01/12 14:07:35;;;;;;;12.48;8.02;;;8.60;68.50;;;;;;2550786;52;21001;-71
2022/01/12 14:10:03;;;;;;;11.02;7.25;;;8.50;68.60;;;;;;2354020;54;21730;-67
2022/01/12 14:12:29;;;;;;;12.73;8.10;;;8.50;69.10;;;;;;2356799;54;20993;-69
2022/01/12 14:14:58;;;;;;;12.43;8.25;;;8.40;69.40;;;;;;2366606;54;20982;-67
2022/01/12 14:17:29;;;;;;;15.02;8.80;;;8.30;69.60;;;;;;2353226;54;20956;-68
2022/01/12 14:20:01;;;;;;;13.27;8.07;;;8.30;69.70;;;;;;2355644;54;21057;-67
2022/01/12 14:22:40;;;;;;;10.93;6.78;;;8.20;70.00;;;;;;2365885;54;21100;-70
2022/01/12 14:25:07;;;;;;;10.65;7.12;;;8.20;70.20;;;;;;2366459;54;21528;-68
2022/01/12 14:27:46;;;;;;;10.45;6.78;;;8.10;70.20;;;;;;2365327;54;20953;-70
2022/01/12 14:30:15;;;;;;;11.90;7.28;;;8.10;69.70;;;;;;2365831;54;20998;-68
2022/01/12 14:32:44;;;;;;;13.00;8.25;;;8.10;70.10;;;;;;2366594;54;20929;-68
2022/01/12 14:35:16;;;;;;;12.02;7.90;;;8.00;70.10;;;;;;2366589;54;21002;-67
2022/01/12 14:37:43;;;;;;;14.30;8.73;;;8.00;70.20;;;;;;2343022;54;20958;-67
2022/01/12 14:40:11;;;;;;;11.68;7.75;;;7.90;70.40;;;;;;2366674;54;20973;-70
2022/01/12 14:42:43;;;;;;;12.15;7.70;;;7.90;70.50;;;;;;2365898;54;20971;-69
2022/01/12 14:45:13;;;;;;;14.50;8.98;;;7.80;70.50;;;;;;2618110;52;20935;-69
2022/01/12 14:47:39;;;;;;;12.18;8.00;;;7.80;70.80;;;;;;2355761;54;21374;-67
2022/01/12 14:50:08;;;;;;;12.70;7.65;;;7.80;70.90;;;;;;2351244;54;21085;-69
2022/01/12 14:52:38;;;;;;;10.55;7.07;;;7.80;70.90;;;;;;2366853;54;20922;-69
2022/01/12 14:55:06;;;;;;;11.75;7.70;;;7.80;71.10;;;;;;2586253;52;21144;-68
2022/01/12 14:57:35;;;;;;;11.40;7.30;;;7.70;70.80;;;;;;2473923;52;21001;-66
2022/01/12 15:00:05;;;;;;;10.65;6.97;;;7.70;70.50;;;;;;2366618;54;20937;-68
2022/01/12 15:02:33;;;;;;;10.63;7.12;;;7.70;70.30;;;;;;2367511;54;21001;-68
2022/01/12 15:04:59;;;;;;;12.15;7.32;;;7.60;70.00;;;;;;2362769;53;21428;-68
2022/01/12 15:07:25;;;;;;;11.20;6.60;;;7.50;69.80;;;;;;2617644;52;20958;-66
2022/01/12 15:09:51;;;;;;;11.35;7.03;;;7.50;69.60;;;;;;2366299;54;20962;-69
2022/01/12 15:12:25;;;;;;;9.88;6.45;;;7.40;69.20;;;;;;2366707;54;20922;-65
2022/01/12 15:14:59;;;;;;;12.52;6.90;;;7.30;68.90;;;;;;2365807;54;20958;-66
2022/01/12 15:17:30;;;;;;;10.20;6.55;;;7.20;68.60;;;;;;2366768;54;21011;-70
2022/01/12 15:19:57;;;;;;;9.40;6.05;;;7.10;68.40;;;;;;2456446;52;20977;-66
2022/01/12 15:22:26;;;;;;;9.20;5.40;;;7.00;68.40;;;;;;2346944;54;20965;-68
2022/01/12 15:24:52;;;;;;;8.82;5.50;;;6.90;68.40;;;;;;2366418;54;21037;-67
2022/01/12 15:27:18;;;;;;;8.93;5.60;;;6.80;68.50;;;;;;2543085;52;20950;-68